sensor_id;sensor_type;location;lat;lon;timestamp;P1;durP1;ratioP1;P2;durP2;ratioP2
79338;SDS011;74181;41.704;44.786;2023-11-19T00:02:21;22.50;;;10.57;;
79338;SDS011;74181;41.704;44.786;2023-11-19T00:04:47;26.25;;;11.57;;
79338;SDS011;74181;41.704;44.786;2023-11-19T00:07:14;24.38;;;11.23;;
79338;SDS011;74181;41.704;44.786;2023-11-19T00:09:40;24.45;;;11.40;;
79338;SDS011;74181;41.704;44.786;2023-11-19T00:12:06;24.25;;;11.63;;
79338;SDS011;74181;41.704;44.786;2023-11-19T00:14:33;21.13;;;10.83;;
79338;SDS011;74181;41.704;44.786;2023-11-19T00:17:00;23.35;;;11.10;;
79338;SDS011;74181;41.704;44.786;2023-11-19T00:19:26;25.30;;;12.05;;
79338;SDS011;74181;41.704;44.786;2023-11-19T00:21:52;26.48;;;11.65;;
79338;SDS011;74181;41.704;44.786;2023-11-19T00:24:18;24.45;;;11.90;;
79338;SDS011;74181;41.704;44.786;2023-11-19T00:26:45;25.30;;;12.10;;
79338;SDS011;74181;41.704;44.786;2023-11-19T00:29:12;26.10;;;12.20;;
79338;SDS011;74181;41.704;44.786;2023-11-19T00:31:40;28.75;;;12.48;;
79338;SDS011;74181;41.704;44.786;2023-11-19T00:34:06;23.42;;;10.98;;
79338;SDS011;74181;41.704;44.786;2023-11-19T00:36:32;20.42;;;10.10;;
79338;SDS011;74181;41.704;44.786;2023-11-19T00:38:58;21.83;;;10.03;;
79338;SDS011;74181;41.704;44.786;2023-11-19T00:41:24;24.45;;;10.73;;
79338;SDS011;74181;41.704;44.786;2023-11-19T00:43:51;25.17;;;11.10;;
79338;SDS011;74181;41.704;44.786;2023-11-19T00:46:17;21.70;;;10.95;;
79338;SDS011;74181;41.704;44.786;2023-11-19T00:48:43;22.42;;;11.27;;
79338;SDS011;74181;41.704;44.786;2023-11-19T00:51:11;24.50;;;11.37;;
79338;SDS011;74181;41.704;44.786;2023-11-19T00:53:37;21.15;;;10.60;;
79338;SDS011;74181;41.704;44.786;2023-11-19T00:56:03;22.73;;;10.57;;
79338;SDS011;74181;41.704;44.786;2023-11-19T00:58:30;20.70;;;9.70;;
79338;SDS011;74181;41.704;44.786;2023-11-19T01:00:56;21.48;;;9.75;;
79338;SDS011;74181;41.704;44.786;2023-11-19T01:03:23;21.73;;;9.13;;
79338;SDS011;74181;41.704;44.786;2023-11-19T01:05:49;19.67;;;8.10;;
79338;SDS011;74181;41.704;44.786;2023-11-19T01:08:15;19.40;;;7.90;;
79338;SDS011;74181;41.704;44.786;2023-11-19T01:10:41;17.83;;;8.65;;
79338;SDS011;74181;41.704;44.786;2023-11-19T01:13:07;24.85;;;11.25;;
79338;SDS011;74181;41.704;44.786;2023-11-19T01:15:33;27.77;;;11.73;;
79338;SDS011;74181;41.704;44.786;2023-11-19T01:18:00;23.98;;;11.98;;
79338;SDS011;74181;41.704;44.786;2023-11-19T01:20:31;26.98;;;12.32;;
79338;SDS011;74181;41.704;44.786;2023-11-19T01:22:59;25.45;;;11.75;;
79338;SDS011;74181;41.704;44.786;2023-11-19T01:25:26;27.13;;;12.15;;
79338;SDS011;74181;41.704;44.786;2023-11-19T01:27:52;26.13;;;11.07;;
79338;SDS011;74181;41.704;44.786;2023-11-19T01:30:18;23.83;;;11.02;;
79338;SDS011;74181;41.704;44.786;2023-11-19T01:32:45;25.70;;;11.77;;
79338;SDS011;74181;41.704;44.786;2023-11-19T01:35:11;27.10;;;11.10;;
79338;SDS011;74181;41.704;44.786;2023-11-19T01:37:37;23.40;;;11.35;;
79338;SDS011;74181;41.704;44.786;2023-11-19T01:40:03;22.57;;;10.90;;
79338;SDS011;74181;41.704;44.786;2023-11-19T01:42:35;24.13;;;10.60;;
79338;SDS011;74181;41.704;44.786;2023-11-19T01:45:05;24.38;;;11.60;;
79338;SDS011;74181;41.704;44.786;2023-11-19T01:47:35;24.83;;;10.40;;
79338;SDS011;74181;41.704;44.786;2023-11-19T01:50:02;21.38;;;10.73;;
79338;SDS011;74181;41.704;44.786;2023-11-19T01:52:32;23.03;;;10.10;;
79338;SDS011;74181;41.704;44.786;2023-11-19T01:55:02;23.17;;;10.40;;
79338;SDS011;74181;41.704;44.786;2023-11-19T01:57:28;20.27;;;9.57;;
79338;SDS011;74181;41.704;44.786;2023-11-19T01:59:55;28.17;;;10.18;;
79338;SDS011;74181;41.704;44.786;2023-11-19T02:02:21;21.80;;;9.38;;
79338;SDS011;74181;41.704;44.786;2023-11-19T02:04:49;18.70;;;8.97;;
79338;SDS011;74181;41.704;44.786;2023-11-19T02:07:15;20.63;;;9.65;;
79338;SDS011;74181;41.704;44.786;2023-11-19T02:09:43;19.83;;;9.15;;
79338;SDS011;74181;41.704;44.786;2023-11-19T02:12:09;24.67;;;9.63;;
79338;SDS011;74181;41.704;44.786;2023-11-19T02:14:37;17.65;;;8.73;;
79338;SDS011;74181;41.704;44.786;2023-11-19T02:17:04;15.80;;;7.33;;
79338;SDS011;74181;41.704;44.786;2023-11-19T02:19:30;17.42;;;8.10;;
79338;SDS011;74181;41.704;44.786;2023-11-19T02:21:56;13.45;;;5.82;;
79338;SDS011;74181;41.704;44.786;2023-11-19T02:24:22;9.95;;;5.50;;
79338;SDS011;74181;41.704;44.786;2023-11-19T02:29:31;8.27;;;3.90;;
79338;SDS011;74181;41.704;44.786;2023-11-19T02:31:57;9.80;;;4.13;;
79338;SDS011;74181;41.704;44.786;2023-11-19T02:34:23;11.45;;;5.60;;
79338;SDS011;74181;41.704;44.786;2023-11-19T02:36:49;12.82;;;5.90;;
79338;SDS011;74181;41.704;44.786;2023-11-19T02:39:15;8.68;;;4.82;;
79338;SDS011;74181;41.704;44.786;2023-11-19T02:41:47;10.97;;;5.27;;
79338;SDS011;74181;41.704;44.786;2023-11-19T02:44:16;16.85;;;8.25;;
79338;SDS011;74181;41.704;44.786;2023-11-19T02:46:43;22.50;;;8.75;;
79338;SDS011;74181;41.704;44.786;2023-11-19T02:49:09;21.00;;;9.40;;
79338;SDS011;74181;41.704;44.786;2023-11-19T02:51:37;20.00;;;9.80;;
79338;SDS011;74181;41.704;44.786;2023-11-19T02:54:04;21.67;;;10.23;;
79338;SDS011;74181;41.704;44.786;2023-11-19T02:56:30;17.48;;;9.20;;
79338;SDS011;74181;41.704;44.786;2023-11-19T02:59:00;20.50;;;9.38;;
79338;SDS011;74181;41.704;44.786;2023-11-19T03:01:37;18.73;;;9.02;;
79338;SDS011;74181;41.704;44.786;2023-11-19T03:04:09;22.05;;;9.48;;
79338;SDS011;74181;41.704;44.786;2023-11-19T03:06:37;20.50;;;9.07;;
79338;SDS011;74181;41.704;44.786;2023-11-19T03:09:04;17.05;;;8.63;;
79338;SDS011;74181;41.704;44.786;2023-11-19T03:11:36;19.63;;;8.60;;
79338;SDS011;74181;41.704;44.786;2023-11-19T03:14:02;19.95;;;9.10;;
79338;SDS011;74181;41.704;44.786;2023-11-19T03:16:31;21.77;;;9.23;;
79338;SDS011;74181;41.704;44.786;2023-11-19T03:18:58;18.97;;;7.53;;
79338;SDS011;74181;41.704;44.786;2023-11-19T03:21:29;14.48;;;7.60;;
79338;SDS011;74181;41.704;44.786;2023-11-19T03:23:57;14.82;;;7.20;;
79338;SDS011;74181;41.704;44.786;2023-11-19T03:26:26;14.93;;;7.05;;
79338;SDS011;74181;41.704;44.786;2023-11-19T03:28:53;17.52;;;7.50;;
79338;SDS011;74181;41.704;44.786;2023-11-19T03:31:19;18.70;;;8.03;;
79338;SDS011;74181;41.704;44.786;2023-11-19T03:33:46;17.35;;;8.32;;
79338;SDS011;74181;41.704;44.786;2023-11-19T03:36:12;18.65;;;8.68;;
79338;SDS011;74181;41.704;44.786;2023-11-19T03:38:38;14.02;;;7.03;;
79338;SDS011;74181;41.704;44.786;2023-11-19T03:41:13;19.95;;;8.10;;
79338;SDS011;74181;41.704;44.786;2023-11-19T03:43:40;17.10;;;7.97;;
79338;SDS011;74181;41.704;44.786;2023-11-19T03:46:18;17.73;;;8.00;;
79338;SDS011;74181;41.704;44.786;2023-11-19T03:48:46;20.90;;;8.88;;
79338;SDS011;74181;41.704;44.786;2023-11-19T03:51:13;16.77;;;8.48;;
79338;SDS011;74181;41.704;44.786;2023-11-19T03:53:42;18.42;;;8.57;;
79338;SDS011;74181;41.704;44.786;2023-11-19T03:56:11;18.20;;;8.73;;
79338;SDS011;74181;41.704;44.786;2023-11-19T03:58:37;18.13;;;7.97;;
79338;SDS011;74181;41.704;44.786;2023-11-19T04:01:13;19.02;;;8.20;;
79338;SDS011;74181;41.704;44.786;2023-11-19T04:03:39;19.50;;;8.00;;
79338;SDS011;74181;41.704;44.786;2023-11-19T04:06:05;17.38;;;8.60;;
79338;SDS011;74181;41.704;44.786;2023-11-19T04:08:31;16.73;;;7.53;;
79338;SDS011;74181;41.704;44.786;2023-11-19T04:10:57;17.85;;;8.30;;
79338;SDS011;74181;41.704;44.786;2023-11-19T04:13:24;15.90;;;7.53;;
79338;SDS011;74181;41.704;44.786;2023-11-19T04:15:50;18.73;;;7.80;;
79338;SDS011;74181;41.704;44.786;2023-11-19T04:18:16;17.88;;;8.38;;
79338;SDS011;74181;41.704;44.786;2023-11-19T04:20:43;18.20;;;8.17;;
79338;SDS011;74181;41.704;44.786;2023-11-19T04:23:09;20.13;;;9.65;;
79338;SDS011;74181;41.704;44.786;2023-11-19T04:25:35;20.75;;;10.10;;
79338;SDS011;74181;41.704;44.786;2023-11-19T04:28:01;23.55;;;10.30;;
79338;SDS011;74181;41.704;44.786;2023-11-19T04:30:28;27.05;;;10.70;;
79338;SDS011;74181;41.704;44.786;2023-11-19T04:32:54;25.60;;;10.77;;
79338;SDS011;74181;41.704;44.786;2023-11-19T04:35:20;21.70;;;10.10;;
79338;SDS011;74181;41.704;44.786;2023-11-19T04:37:46;21.63;;;9.95;;
79338;SDS011;74181;41.704;44.786;2023-11-19T04:40:13;23.02;;;10.15;;
79338;SDS011;74181;41.704;44.786;2023-11-19T04:42:39;17.73;;;9.13;;
79338;SDS011;74181;41.704;44.786;2023-11-19T04:45:06;16.90;;;8.23;;
79338;SDS011;74181;41.704;44.786;2023-11-19T04:47:33;15.27;;;7.85;;
79338;SDS011;74181;41.704;44.786;2023-11-19T04:49:59;14.43;;;6.97;;
79338;SDS011;74181;41.704;44.786;2023-11-19T04:52:26;13.25;;;6.40;;
79338;SDS011;74181;41.704;44.786;2023-11-19T04:54:52;13.70;;;6.30;;
79338;SDS011;74181;41.704;44.786;2023-11-19T04:57:18;14.47;;;7.23;;
79338;SDS011;74181;41.704;44.786;2023-11-19T04:59:44;17.38;;;7.65;;
79338;SDS011;74181;41.704;44.786;2023-11-19T05:02:11;22.98;;;10.80;;
79338;SDS011;74181;41.704;44.786;2023-11-19T05:04:37;21.70;;;10.30;;
79338;SDS011;74181;41.704;44.786;2023-11-19T05:07:05;24.85;;;10.77;;
79338;SDS011;74181;41.704;44.786;2023-11-19T05:09:32;24.77;;;10.53;;
79338;SDS011;74181;41.704;44.786;2023-11-19T05:11:58;26.38;;;10.63;;
79338;SDS011;74181;41.704;44.786;2023-11-19T05:14:24;21.73;;;10.07;;
79338;SDS011;74181;41.704;44.786;2023-11-19T05:16:50;21.85;;;9.70;;
79338;SDS011;74181;41.704;44.786;2023-11-19T05:19:16;22.73;;;10.30;;
79338;SDS011;74181;41.704;44.786;2023-11-19T05:21:43;21.73;;;10.03;;
79338;SDS011;74181;41.704;44.786;2023-11-19T05:24:09;25.25;;;10.70;;
79338;SDS011;74181;41.704;44.786;2023-11-19T05:26:35;22.83;;;10.65;;
79338;SDS011;74181;41.704;44.786;2023-11-19T05:29:01;25.45;;;11.30;;
79338;SDS011;74181;41.704;44.786;2023-11-19T05:31:27;23.65;;;10.93;;
79338;SDS011;74181;41.704;44.786;2023-11-19T05:33:53;20.30;;;10.53;;
79338;SDS011;74181;41.704;44.786;2023-11-19T05:36:19;20.45;;;10.15;;
79338;SDS011;74181;41.704;44.786;2023-11-19T05:38:45;20.05;;;9.48;;
79338;SDS011;74181;41.704;44.786;2023-11-19T05:41:11;19.75;;;9.70;;
79338;SDS011;74181;41.704;44.786;2023-11-19T05:43:37;20.67;;;9.70;;
79338;SDS011;74181;41.704;44.786;2023-11-19T05:46:06;22.80;;;9.60;;
79338;SDS011;74181;41.704;44.786;2023-11-19T05:48:32;19.60;;;9.63;;
79338;SDS011;74181;41.704;44.786;2023-11-19T05:50:59;25.27;;;10.57;;
79338;SDS011;74181;41.704;44.786;2023-11-19T05:53:25;20.73;;;9.48;;
79338;SDS011;74181;41.704;44.786;2023-11-19T05:55:51;18.73;;;9.77;;
79338;SDS011;74181;41.704;44.786;2023-11-19T05:58:24;17.60;;;9.00;;
79338;SDS011;74181;41.704;44.786;2023-11-19T06:00:52;20.90;;;9.73;;
79338;SDS011;74181;41.704;44.786;2023-11-19T06:03:18;19.92;;;9.85;;
79338;SDS011;74181;41.704;44.786;2023-11-19T06:05:50;18.10;;;9.73;;
79338;SDS011;74181;41.704;44.786;2023-11-19T06:08:16;19.13;;;9.68;;
79338;SDS011;74181;41.704;44.786;2023-11-19T06:10:42;21.03;;;10.23;;
79338;SDS011;74181;41.704;44.786;2023-11-19T06:13:12;24.55;;;11.20;;
79338;SDS011;74181;41.704;44.786;2023-11-19T06:15:52;20.90;;;10.23;;
79338;SDS011;74181;41.704;44.786;2023-11-19T06:18:18;25.50;;;11.77;;
79338;SDS011;74181;41.704;44.786;2023-11-19T06:20:45;24.55;;;11.60;;
79338;SDS011;74181;41.704;44.786;2023-11-19T06:23:11;22.97;;;10.97;;
79338;SDS011;74181;41.704;44.786;2023-11-19T06:25:38;18.92;;;10.10;;
79338;SDS011;74181;41.704;44.786;2023-11-19T06:28:04;20.25;;;9.52;;
79338;SDS011;74181;41.704;44.786;2023-11-19T06:30:30;21.80;;;9.98;;
79338;SDS011;74181;41.704;44.786;2023-11-19T06:32:58;18.30;;;9.00;;
79338;SDS011;74181;41.704;44.786;2023-11-19T06:35:25;17.67;;;8.70;;
79338;SDS011;74181;41.704;44.786;2023-11-19T06:37:51;20.48;;;9.30;;
79338;SDS011;74181;41.704;44.786;2023-11-19T06:40:17;19.00;;;10.05;;
79338;SDS011;74181;41.704;44.786;2023-11-19T06:42:43;18.92;;;10.00;;
79338;SDS011;74181;41.704;44.786;2023-11-19T06:45:09;24.13;;;11.52;;
79338;SDS011;74181;41.704;44.786;2023-11-19T06:47:36;27.07;;;11.17;;
79338;SDS011;74181;41.704;44.786;2023-11-19T06:50:02;21.58;;;11.13;;
79338;SDS011;74181;41.704;44.786;2023-11-19T06:52:31;27.42;;;11.68;;
79338;SDS011;74181;41.704;44.786;2023-11-19T06:54:57;23.35;;;11.98;;
79338;SDS011;74181;41.704;44.786;2023-11-19T06:57:28;25.10;;;12.60;;
79338;SDS011;74181;41.704;44.786;2023-11-19T06:59:57;28.17;;;12.43;;
79338;SDS011;74181;41.704;44.786;2023-11-19T07:02:23;27.55;;;12.60;;
79338;SDS011;74181;41.704;44.786;2023-11-19T07:04:50;29.33;;;12.90;;
79338;SDS011;74181;41.704;44.786;2023-11-19T07:07:16;23.92;;;12.57;;
79338;SDS011;74181;41.704;44.786;2023-11-19T07:09:42;19.83;;;11.88;;
79338;SDS011;74181;41.704;44.786;2023-11-19T07:12:08;24.90;;;12.07;;
79338;SDS011;74181;41.704;44.786;2023-11-19T07:14:34;29.75;;;12.98;;
79338;SDS011;74181;41.704;44.786;2023-11-19T07:17:00;25.35;;;12.95;;
79338;SDS011;74181;41.704;44.786;2023-11-19T07:19:27;27.67;;;13.10;;
79338;SDS011;74181;41.704;44.786;2023-11-19T07:21:53;25.90;;;13.48;;
79338;SDS011;74181;41.704;44.786;2023-11-19T07:24:20;26.40;;;13.77;;
79338;SDS011;74181;41.704;44.786;2023-11-19T07:26:47;26.83;;;14.25;;
79338;SDS011;74181;41.704;44.786;2023-11-19T07:29:13;29.52;;;14.93;;
79338;SDS011;74181;41.704;44.786;2023-11-19T07:31:42;30.25;;;14.25;;
79338;SDS011;74181;41.704;44.786;2023-11-19T07:34:10;34.22;;;14.70;;
79338;SDS011;74181;41.704;44.786;2023-11-19T07:36:37;31.33;;;14.33;;
79338;SDS011;74181;41.704;44.786;2023-11-19T07:39:04;29.67;;;14.75;;
79338;SDS011;74181;41.704;44.786;2023-11-19T07:41:31;29.48;;;14.02;;
79338;SDS011;74181;41.704;44.786;2023-11-19T07:43:57;25.08;;;13.10;;
79338;SDS011;74181;41.704;44.786;2023-11-19T07:46:23;29.52;;;13.70;;
79338;SDS011;74181;41.704;44.786;2023-11-19T07:48:51;29.67;;;13.93;;
79338;SDS011;74181;41.704;44.786;2023-11-19T07:51:18;24.88;;;12.52;;
79338;SDS011;74181;41.704;44.786;2023-11-19T07:53:44;25.85;;;12.43;;
79338;SDS011;74181;41.704;44.786;2023-11-19T07:56:10;26.70;;;13.52;;
79338;SDS011;74181;41.704;44.786;2023-11-19T07:58:36;32.10;;;14.70;;
79338;SDS011;74181;41.704;44.786;2023-11-19T08:01:02;27.27;;;13.60;;
79338;SDS011;74181;41.704;44.786;2023-11-19T08:03:28;28.85;;;13.82;;
79338;SDS011;74181;41.704;44.786;2023-11-19T08:05:59;27.60;;;14.40;;
79338;SDS011;74181;41.704;44.786;2023-11-19T08:08:26;30.73;;;14.68;;
79338;SDS011;74181;41.704;44.786;2023-11-19T08:10:55;28.70;;;14.35;;
79338;SDS011;74181;41.704;44.786;2023-11-19T08:13:23;27.77;;;15.60;;
79338;SDS011;74181;41.704;44.786;2023-11-19T08:15:50;37.45;;;18.80;;
79338;SDS011;74181;41.704;44.786;2023-11-19T08:18:17;37.30;;;16.90;;
79338;SDS011;74181;41.704;44.786;2023-11-19T08:20:44;34.45;;;15.85;;
79338;SDS011;74181;41.704;44.786;2023-11-19T08:23:11;30.35;;;16.67;;
79338;SDS011;74181;41.704;44.786;2023-11-19T08:25:37;30.10;;;14.30;;
79338;SDS011;74181;41.704;44.786;2023-11-19T08:28:03;27.50;;;14.15;;
79338;SDS011;74181;41.704;44.786;2023-11-19T08:30:29;33.25;;;15.80;;
79338;SDS011;74181;41.704;44.786;2023-11-19T08:32:56;31.52;;;15.48;;
79338;SDS011;74181;41.704;44.786;2023-11-19T08:35:22;30.27;;;15.80;;
79338;SDS011;74181;41.704;44.786;2023-11-19T08:37:49;31.93;;;15.10;;
79338;SDS011;74181;41.704;44.786;2023-11-19T08:40:15;34.08;;;16.13;;
79338;SDS011;74181;41.704;44.786;2023-11-19T08:42:41;34.72;;;16.05;;
79338;SDS011;74181;41.704;44.786;2023-11-19T08:45:07;35.88;;;17.80;;
79338;SDS011;74181;41.704;44.786;2023-11-19T08:47:36;35.38;;;17.65;;
79338;SDS011;74181;41.704;44.786;2023-11-19T08:50:02;34.97;;;16.43;;
79338;SDS011;74181;41.704;44.786;2023-11-19T08:52:30;37.85;;;17.20;;
79338;SDS011;74181;41.704;44.786;2023-11-19T08:54:56;33.47;;;15.90;;
79338;SDS011;74181;41.704;44.786;2023-11-19T08:57:22;31.77;;;15.20;;
79338;SDS011;74181;41.704;44.786;2023-11-19T08:59:48;29.73;;;15.55;;
79338;SDS011;74181;41.704;44.786;2023-11-19T09:02:14;28.20;;;14.73;;
79338;SDS011;74181;41.704;44.786;2023-11-19T09:04:41;32.22;;;16.98;;
79338;SDS011;74181;41.704;44.786;2023-11-19T09:07:07;32.47;;;16.25;;
79338;SDS011;74181;41.704;44.786;2023-11-19T09:09:35;34.58;;;15.88;;
79338;SDS011;74181;41.704;44.786;2023-11-19T09:12:02;29.92;;;15.63;;
79338;SDS011;74181;41.704;44.786;2023-11-19T09:14:29;31.03;;;15.83;;
79338;SDS011;74181;41.704;44.786;2023-11-19T09:17:00;30.45;;;16.80;;
79338;SDS011;74181;41.704;44.786;2023-11-19T09:19:26;34.28;;;16.83;;
79338;SDS011;74181;41.704;44.786;2023-11-19T09:21:53;37.88;;;19.33;;
79338;SDS011;74181;41.704;44.786;2023-11-19T09:24:19;40.67;;;19.00;;
79338;SDS011;74181;41.704;44.786;2023-11-19T09:26:45;33.03;;;17.43;;
79338;SDS011;74181;41.704;44.786;2023-11-19T09:29:12;41.30;;;20.02;;
79338;SDS011;74181;41.704;44.786;2023-11-19T09:31:40;37.50;;;18.70;;
79338;SDS011;74181;41.704;44.786;2023-11-19T09:34:09;34.20;;;17.30;;
79338;SDS011;74181;41.704;44.786;2023-11-19T09:36:35;36.42;;;17.77;;
79338;SDS011;74181;41.704;44.786;2023-11-19T09:39:02;30.80;;;16.90;;
79338;SDS011;74181;41.704;44.786;2023-11-19T09:41:29;32.38;;;17.00;;
79338;SDS011;74181;41.704;44.786;2023-11-19T09:43:56;34.38;;;15.77;;
79338;SDS011;74181;41.704;44.786;2023-11-19T09:46:23;36.10;;;17.58;;
79338;SDS011;74181;41.704;44.786;2023-11-19T09:48:50;35.92;;;18.10;;
79338;SDS011;74181;41.704;44.786;2023-11-19T09:51:20;38.97;;;18.07;;
79338;SDS011;74181;41.704;44.786;2023-11-19T09:53:47;38.78;;;19.65;;
79338;SDS011;74181;41.704;44.786;2023-11-19T09:56:13;42.08;;;20.92;;
79338;SDS011;74181;41.704;44.786;2023-11-19T09:58:40;39.63;;;21.55;;
79338;SDS011;74181;41.704;44.786;2023-11-19T10:01:07;46.55;;;21.42;;
79338;SDS011;74181;41.704;44.786;2023-11-19T10:03:36;38.83;;;20.50;;
79338;SDS011;74181;41.704;44.786;2023-11-19T10:06:06;41.83;;;20.00;;
79338;SDS011;74181;41.704;44.786;2023-11-19T10:08:33;38.72;;;19.30;;
79338;SDS011;74181;41.704;44.786;2023-11-19T10:10:59;39.88;;;21.00;;
79338;SDS011;74181;41.704;44.786;2023-11-19T10:13:28;38.78;;;21.10;;
79338;SDS011;74181;41.704;44.786;2023-11-19T10:15:55;41.13;;;20.67;;
79338;SDS011;74181;41.704;44.786;2023-11-19T10:18:26;39.60;;;19.73;;
79338;SDS011;74181;41.704;44.786;2023-11-19T10:20:52;40.75;;;21.02;;
79338;SDS011;74181;41.704;44.786;2023-11-19T10:23:19;30.92;;;16.00;;
79338;SDS011;74181;41.704;44.786;2023-11-19T10:25:45;31.58;;;15.77;;
79338;SDS011;74181;41.704;44.786;2023-11-19T10:28:11;23.27;;;13.43;;
79338;SDS011;74181;41.704;44.786;2023-11-19T10:30:42;26.02;;;12.95;;
79338;SDS011;74181;41.704;44.786;2023-11-19T10:33:09;23.92;;;13.80;;
79338;SDS011;74181;41.704;44.786;2023-11-19T10:35:51;23.60;;;13.55;;
79338;SDS011;74181;41.704;44.786;2023-11-19T10:38:23;21.83;;;10.60;;
79338;SDS011;74181;41.704;44.786;2023-11-19T10:40:50;23.83;;;12.10;;
79338;SDS011;74181;41.704;44.786;2023-11-19T10:43:16;17.73;;;9.80;;
79338;SDS011;74181;41.704;44.786;2023-11-19T10:45:43;21.80;;;9.30;;
79338;SDS011;74181;41.704;44.786;2023-11-19T10:48:09;18.85;;;10.52;;
79338;SDS011;74181;41.704;44.786;2023-11-19T10:50:37;18.30;;;10.27;;
79338;SDS011;74181;41.704;44.786;2023-11-19T10:53:05;14.33;;;8.10;;
79338;SDS011;74181;41.704;44.786;2023-11-19T10:55:33;16.75;;;9.13;;
79338;SDS011;74181;41.704;44.786;2023-11-19T10:58:10;20.15;;;10.63;;
79338;SDS011;74181;41.704;44.786;2023-11-19T11:00:39;23.60;;;11.45;;
79338;SDS011;74181;41.704;44.786;2023-11-19T11:03:18;22.77;;;10.55;;
79338;SDS011;74181;41.704;44.786;2023-11-19T11:05:52;24.63;;;11.20;;
79338;SDS011;74181;41.704;44.786;2023-11-19T11:08:19;22.17;;;10.60;;
79338;SDS011;74181;41.704;44.786;2023-11-19T11:13:18;20.00;;;10.07;;
79338;SDS011;74181;41.704;44.786;2023-11-19T11:15:45;19.35;;;9.65;;
79338;SDS011;74181;41.704;44.786;2023-11-19T11:18:12;18.80;;;9.63;;
79338;SDS011;74181;41.704;44.786;2023-11-19T11:20:39;20.05;;;10.48;;
79338;SDS011;74181;41.704;44.786;2023-11-19T11:23:26;19.30;;;10.15;;
79338;SDS011;74181;41.704;44.786;2023-11-19T11:29:04;20.70;;;10.05;;
79338;SDS011;74181;41.704;44.786;2023-11-19T11:31:36;24.30;;;11.60;;
79338;SDS011;74181;41.704;44.786;2023-11-19T11:37:19;28.95;;;12.65;;
79338;SDS011;74181;41.704;44.786;2023-11-19T11:39:51;24.63;;;12.02;;
79338;SDS011;74181;41.704;44.786;2023-11-19T11:50:16;22.85;;;11.20;;
79338;SDS011;74181;41.704;44.786;2023-11-19T11:55:35;28.85;;;15.13;;
79338;SDS011;74181;41.704;44.786;2023-11-19T11:58:05;27.37;;;13.60;;
79338;SDS011;74181;41.704;44.786;2023-11-19T12:00:32;29.13;;;13.90;;
79338;SDS011;74181;41.704;44.786;2023-11-19T12:02:59;27.83;;;14.10;;
79338;SDS011;74181;41.704;44.786;2023-11-19T12:05:26;29.92;;;13.98;;
79338;SDS011;74181;41.704;44.786;2023-11-19T12:07:56;27.55;;;14.65;;
79338;SDS011;74181;41.704;44.786;2023-11-19T12:10:29;29.80;;;14.17;;
79338;SDS011;74181;41.704;44.786;2023-11-19T12:13:00;30.17;;;15.23;;
79338;SDS011;74181;41.704;44.786;2023-11-19T12:15:27;33.97;;;15.65;;
79338;SDS011;74181;41.704;44.786;2023-11-19T12:17:54;31.23;;;16.13;;
79338;SDS011;74181;41.704;44.786;2023-11-19T12:20:21;34.55;;;17.08;;
79338;SDS011;74181;41.704;44.786;2023-11-19T12:22:48;38.03;;;16.50;;
79338;SDS011;74181;41.704;44.786;2023-11-19T12:25:17;31.50;;;16.90;;
79338;SDS011;74181;41.704;44.786;2023-11-19T12:27:52;33.92;;;16.13;;
79338;SDS011;74181;41.704;44.786;2023-11-19T12:30:23;33.92;;;17.45;;
79338;SDS011;74181;41.704;44.786;2023-11-19T12:32:50;33.17;;;17.08;;
79338;SDS011;74181;41.704;44.786;2023-11-19T12:35:16;28.73;;;14.93;;
79338;SDS011;74181;41.704;44.786;2023-11-19T12:37:42;32.80;;;15.80;;
79338;SDS011;74181;41.704;44.786;2023-11-19T12:42:46;37.00;;;17.35;;
79338;SDS011;74181;41.704;44.786;2023-11-19T12:45:13;34.20;;;17.05;;
79338;SDS011;74181;41.704;44.786;2023-11-19T12:47:39;34.83;;;16.97;;
79338;SDS011;74181;41.704;44.786;2023-11-19T12:50:06;36.25;;;17.40;;
79338;SDS011;74181;41.704;44.786;2023-11-19T12:52:37;35.47;;;17.52;;
79338;SDS011;74181;41.704;44.786;2023-11-19T12:55:04;41.72;;;17.45;;
79338;SDS011;74181;41.704;44.786;2023-11-19T12:57:41;37.85;;;17.92;;
79338;SDS011;74181;41.704;44.786;2023-11-19T13:00:17;36.50;;;18.03;;
79338;SDS011;74181;41.704;44.786;2023-11-19T13:02:48;35.70;;;17.50;;
79338;SDS011;74181;41.704;44.786;2023-11-19T13:05:36;33.00;;;17.05;;
79338;SDS011;74181;41.704;44.786;2023-11-19T13:10:32;30.35;;;15.73;;
79338;SDS011;74181;41.704;44.786;2023-11-19T13:13:06;33.93;;;16.53;;
79338;SDS011;74181;41.704;44.786;2023-11-19T13:15:34;37.85;;;18.30;;
79338;SDS011;74181;41.704;44.786;2023-11-19T13:18:01;41.60;;;19.35;;
79338;SDS011;74181;41.704;44.786;2023-11-19T13:20:28;40.78;;;19.13;;
79338;SDS011;74181;41.704;44.786;2023-11-19T13:22:57;41.33;;;19.45;;
79338;SDS011;74181;41.704;44.786;2023-11-19T13:25:25;42.27;;;19.10;;
79338;SDS011;74181;41.704;44.786;2023-11-19T13:27:52;43.28;;;19.08;;
79338;SDS011;74181;41.704;44.786;2023-11-19T13:30:19;42.08;;;18.80;;
79338;SDS011;74181;41.704;44.786;2023-11-19T13:32:45;44.35;;;20.60;;
79338;SDS011;74181;41.704;44.786;2023-11-19T13:35:12;47.83;;;21.40;;
79338;SDS011;74181;41.704;44.786;2023-11-19T13:37:38;44.23;;;22.07;;
79338;SDS011;74181;41.704;44.786;2023-11-19T13:40:06;44.55;;;20.98;;
79338;SDS011;74181;41.704;44.786;2023-11-19T13:42:33;44.25;;;22.15;;
79338;SDS011;74181;41.704;44.786;2023-11-19T13:44:59;48.45;;;22.65;;
79338;SDS011;74181;41.704;44.786;2023-11-19T13:47:25;48.72;;;22.67;;
79338;SDS011;74181;41.704;44.786;2023-11-19T13:49:54;52.23;;;23.47;;
79338;SDS011;74181;41.704;44.786;2023-11-19T13:52:20;47.85;;;23.30;;
79338;SDS011;74181;41.704;44.786;2023-11-19T13:54:47;50.15;;;24.42;;
79338;SDS011;74181;41.704;44.786;2023-11-19T13:57:13;53.80;;;26.27;;
79338;SDS011;74181;41.704;44.786;2023-11-19T13:59:41;57.88;;;27.70;;
79338;SDS011;74181;41.704;44.786;2023-11-19T14:02:07;56.43;;;25.30;;
79338;SDS011;74181;41.704;44.786;2023-11-19T14:04:34;48.83;;;24.35;;
79338;SDS011;74181;41.704;44.786;2023-11-19T14:07:00;54.33;;;25.25;;
79338;SDS011;74181;41.704;44.786;2023-11-19T14:09:26;48.85;;;24.80;;
79338;SDS011;74181;41.704;44.786;2023-11-19T14:11:52;48.75;;;23.90;;
79338;SDS011;74181;41.704;44.786;2023-11-19T14:14:18;54.73;;;25.33;;
79338;SDS011;74181;41.704;44.786;2023-11-19T14:16:44;50.20;;;25.77;;
79338;SDS011;74181;41.704;44.786;2023-11-19T14:19:11;55.13;;;24.67;;
79338;SDS011;74181;41.704;44.786;2023-11-19T14:21:39;56.85;;;26.17;;
79338;SDS011;74181;41.704;44.786;2023-11-19T14:24:05;106.95;;;43.60;;
79338;SDS011;74181;41.704;44.786;2023-11-19T14:26:31;61.57;;;29.17;;
79338;SDS011;74181;41.704;44.786;2023-11-19T14:28:57;59.40;;;28.27;;
79338;SDS011;74181;41.704;44.786;2023-11-19T14:31:27;54.67;;;28.27;;
79338;SDS011;74181;41.704;44.786;2023-11-19T14:33:55;60.17;;;29.17;;
79338;SDS011;74181;41.704;44.786;2023-11-19T14:36:21;63.55;;;31.02;;
79338;SDS011;74181;41.704;44.786;2023-11-19T14:38:50;70.40;;;31.50;;
79338;SDS011;74181;41.704;44.786;2023-11-19T14:41:16;75.15;;;33.67;;
79338;SDS011;74181;41.704;44.786;2023-11-19T14:43:42;66.32;;;32.72;;